Flight Track Log - Related Links

Times and Time Zones

All times are in EDT time to prevent confusion due to time zone crossing. See the SKW5631 flight status page for this flight to view local times or setup timezone preferences in your user account.

Time Position Orientation Groundspeed Altitude Reporting Facility
EDT Latitude Longitude Course Direction KTS MPH feet Rate Location/Type
Fri 10:11:22 PM 37.6453 -122.3647 133° Southeast 171 197 27,000  Level Oakland Center
Fri 10:12:24 PM 37.6883 -122.3633 North 193 222 2,500 -11,366 Descending Oakland Center
Fri 10:13:25 PM 37.7125 -122.4150 301° West 240 276 3,700 2,115 Climbing Oakland Center
Fri 10:14:00 PM 37.3599 -122.2385 136° Southeast  Level FlightAware Approximate
Fri 10:14:26 PM 37.6233 -122.4283 187° South 271 312 6,800  Level Oakland Center
Fri 10:15:00 PM 37.2726 -122.1172 130° Southeast  Level FlightAware Approximate
Fri 10:15:28 PM 37.5433 -122.4189 175° South 280 322 9,200  Level Oakland Center
Fri 10:16:00 PM 37.1822 -121.9985 133° Southeast  Level FlightAware Approximate
Fri 10:16:29 PM 37.4672 -122.3767 156° South 315 362 10,900  Level Oakland Center
Fri 10:17:30 PM 37.4003 -122.3025 139° Southeast 323 372 12,800 1,672 Climbing Oakland Center
Fri 10:18:31 PM 37.3297 -122.2256 139° Southeast 333 383 14,300 1,475 Climbing Oakland Center
Fri 10:19:32 PM 37.2556 -122.1447 139° Southeast 349 402 15,800 1,463 Climbing Oakland Center
Fri 10:20:34 PM 37.1783 -122.0622 140° Southeast 361 415 17,300 1,415 Climbing Oakland Center
Fri 10:21:35 PM 37.1019 -121.9783 139° Southeast 366 421 18,700 1,426 Climbing Oakland Center
Fri 10:22:36 PM 37.0247 -121.8939 139° Southeast 369 425 20,200 1,623 Climbing Oakland Center
Fri 10:23:37 PM 36.9314 -121.7933 139° Southeast 370 426 22,000 1,610 Climbing Oakland Center
Fri 10:24:39 PM 36.8556 -121.7111 139° Southeast 363 418 23,500 1,366 Climbing Oakland Center
Fri 10:25:40 PM 36.7911 -121.6433 140° Southeast 357 411 24,800 1,180 Climbing Oakland Center
Fri 10:26:41 PM 36.7025 -121.5486 139° Southeast 353 406 25,900 934 Climbing Oakland Center
Fri 10:27:42 PM 36.6258 -121.4644 139° Southeast 364 419 26,700 541 Climbing Oakland Center
Fri 10:28:43 PM 36.5458 -121.3803 140° Southeast 375 432 27,000 146 Climbing Oakland Center
Fri 10:29:45 PM 36.4619 -121.2903 139° Southeast 397 457 27,000  Level Oakland Center
Fri 10:30:46 PM 36.3733 -121.1978 140° Southeast 414 476 27,000  Level Oakland Center
Fri 10:31:47 PM 36.2842 -121.1031 139° Southeast 421 484 27,000  Level Oakland Center
Fri 10:32:48 PM 36.1944 -121.0072 139° Southeast 424 488 27,000  Level Oakland Center
Fri 10:33:50 PM 36.1039 -120.9122 140° Southeast 427 491 27,000  Level Oakland Center
Fri 10:34:51 PM 36.0125 -120.8172 140° Southeast 427 491 27,000  Level Oakland Center
Fri 10:35:52 PM 35.9219 -120.7203 139° Southeast 431 496 27,000  Level Oakland Center
Fri 10:36:53 PM 35.8133 -120.6078 140° Southeast 425 489 27,000  Level Oakland Center
Fri 10:37:54 PM 35.7225 -120.5136 140° Southeast 427 491 27,000  Level Oakland Center
Fri 10:38:56 PM 35.6311 -120.4178 140° Southeast 427 491 27,000  Level Oakland Center
Fri 10:39:57 PM 35.5392 -120.3231 140° Southeast 427 491 27,000  Level Oakland Center
Fri 10:41:10 PM 35.4253 -120.2089 141° Southeast 429 494 27,000  Level Los Angeles Center
Fri 10:42:12 PM 35.3331 -120.1114 139° Southeast 429 494 27,000  Level Los Angeles Center
Fri 10:43:14 PM 35.2425 -120.0161 139° Southeast 429 494 27,000  Level Los Angeles Center
Fri 10:44:16 PM 35.1511 -119.9233 140° Southeast 428 493 27,000  Level Los Angeles Center
Fri 10:45:17 PM 35.0625 -119.8283 139° Southeast 426 490 27,000 -244 Level Los Angeles Center
Fri 10:46:19 PM 34.9850 -119.7186 131° Southeast 426 490 26,500 -1,742 Descending Los Angeles Center
Fri 10:47:21 PM 34.9042 -119.6081 132° Southeast 431 496 23,400 -2,956 Descending Los Angeles Center
Fri 10:48:35 PM 34.8061 -119.4783 133° Southeast 435 501 19,800 -3,132 Descending Los Angeles Center
Fri 10:49:37 PM 34.7119 -119.3539 133° Southeast 425 489 16,300 -3,171 Descending Los Angeles Center
Fri 10:50:38 PM 34.6383 -119.2528 131° Southeast 411 473 13,300 -2,537 Descending Los Angeles Center
Fri 10:51:40 PM 34.5653 -119.1586 133° Southeast 391 450 11,100 -1,113 Descending Los Angeles Center
Fri 10:52:42 PM 34.5042 -119.0767 132° Southeast 324 373 11,000 -145 Descending Los Angeles Center
Fri 10:53:44 PM 34.4475 -119.0003 132° Southeast 303 349 10,800 -726 Descending Los Angeles Center
Fri 10:54:46 PM 34.4031 -118.9353 130° Southeast 310 357 9,500 -1,659 Descending Los Angeles Center
Fri 10:55:47 PM 34.3336 -118.8225 127° Southeast 296 341 7,400 -1,756 Descending Los Angeles Center
Fri 10:56:49 PM 34.2872 -118.7517 128° Southeast 274 315 5,900 -1,171 Descending Los Angeles Center
Fri 10:57:50 PM 34.2417 -118.6781 127° Southeast 272 313 5,000 -780 Descending Los Angeles Center
Fri 10:58:52 PM 34.2014 -118.6092 125° Southeast 263 303 4,300 -774 Descending Los Angeles Center
Fri 10:59:54 PM 34.2006 -118.5431 91° East 217 250 3,400 -726 Descending Los Angeles Center
Fri 11:00:56 PM 34.2000 -118.4881 91° East 184 212 2,800 -732 Descending Los Angeles Center
Fri 11:01:57 PM 34.1992 -118.4386 91° East 165 190 1,900 -732 Descending Los Angeles Center
Fri 11:02:59 PM 34.1992 -118.3875 90° East 154 177 1,300 -581 Descending Los Angeles Center

Login

Don't have an account? Register now (free) for customized features, flight alerts, and more!